Time;durP1;ratioP1;P1;durP2;ratioP2;P2;SDS_P1;SDS_P2;PMS_P1;PMS_P2;Temp;Humidity;BMP_temperature;BMP_pressure;BME280_temperature;BME280_humidity;BME280_pressure;Samples;Min_cycle;Max_cycle;Signal;HPM_P1;HPM_P2
2022/03/23 00:02:03;;;;;;;29.08;15.75;;;;;;;3.65;66.00;100695.41;4968071;28;20043;-52
2022/03/23 00:04:29;;;;;;;27.05;14.90;;;;;;;3.77;64.89;100703.88;4969560;28;20106;-50
2022/03/23 00:06:55;;;;;;;28.23;15.68;;;;;;;3.73;65.96;100702.56;4962347;28;20405;-50
2022/03/23 00:09:21;;;;;;;25.30;15.85;;;;;;;3.53;67.66;100697.50;4967706;28;20034;-51
2022/03/23 00:11:46;;;;;;;24.80;14.77;;;;;;;3.41;68.43;100694.31;4967292;28;20046;-49
2022/03/23 00:14:11;;;;;;;27.20;15.65;;;;;;;3.54;70.92;100693.88;4969523;28;20057;-50
2022/03/23 00:16:37;;;;;;;29.38;14.95;;;;;;;3.52;70.19;100697.66;4967952;28;20504;-53
2022/03/23 00:19:04;;;;;;;25.52;15.73;;;;;;;3.26;68.17;100701.22;4969776;28;20053;-50
2022/03/23 00:21:29;;;;;;;26.08;14.55;;;;;;;3.01;68.23;100698.44;4962990;28;20039;-52
2022/03/23 00:23:54;;;;;;;27.42;15.77;;;;;;;3.24;68.39;100690.78;4960053;28;20073;-53
2022/03/23 00:26:20;;;;;;;26.90;14.88;;;;;;;3.45;66.90;100703.63;4960448;28;20046;-52
2022/03/23 00:28:45;;;;;;;28.65;15.15;;;;;;;3.54;69.42;100699.16;4963275;28;20034;-52
2022/03/23 00:31:11;;;;;;;25.98;14.88;;;;;;;3.42;68.21;100701.28;4967839;28;20053;-50
2022/03/23 00:33:37;;;;;;;25.42;14.50;;;;;;;3.15;67.98;100699.69;4963566;28;20034;-50
2022/03/23 00:36:03;;;;;;;29.35;15.63;;;;;;;3.14;70.32;100703.31;4959054;28;20166;-50
2022/03/23 00:38:29;;;;;;;25.38;14.93;;;;;;;3.02;70.45;100694.81;4961902;28;20023;-51
2022/03/23 00:40:55;;;;;;;24.35;15.07;;;;;;;3.00;73.78;100696.78;4979105;28;20034;-51
2022/03/23 00:43:21;;;;;;;23.25;13.75;;;;;;;3.16;72.21;100695.22;4963724;28;20531;-50
2022/03/23 00:45:46;;;;;;;23.23;14.63;;;;;;;3.62;69.69;100701.88;4967977;28;20069;-52
2022/03/23 00:48:12;;;;;;;28.67;14.63;;;;;;;3.59;66.94;100696.84;4962127;28;20497;-51
2022/03/23 00:50:38;;;;;;;29.58;15.13;;;;;;;3.20;68.29;100702.69;4960782;28;20046;-50
2022/03/23 00:53:03;;;;;;;23.38;15.02;;;;;;;2.91;68.97;100702.19;4955523;28;20097;-50
2022/03/23 00:55:28;;;;;;;26.13;15.32;;;;;;;2.80;72.77;100698.81;4962385;28;20042;-53
2022/03/23 00:57:54;;;;;;;26.77;16.08;;;;;;;2.55;71.60;100702.28;4967413;28;20031;-53
2022/03/23 01:00:20;;;;;;;31.50;17.75;;;;;;;2.54;72.04;100695.31;4967756;28;20131;-51
2022/03/23 01:02:46;;;;;;;34.97;17.08;;;;;;;2.58;72.25;100696.69;4964084;28;20556;-51
2022/03/23 01:05:12;;;;;;;29.33;16.35;;;;;;;2.50;72.13;100694.00;4956836;28;20129;-52
2022/03/23 01:07:38;;;;;;;28.15;15.50;;;;;;;2.65;71.27;100697.75;4964562;28;20496;-51
2022/03/23 01:10:04;;;;;;;26.45;15.02;;;;;;;2.79;69.63;100699.78;4965872;28;20031;-52
2022/03/23 01:12:30;;;;;;;26.20;15.35;;;;;;;2.86;70.15;100704.47;4967740;28;20042;-50
2022/03/23 01:14:55;;;;;;;28.25;15.75;;;;;;;3.30;72.45;100699.91;4958966;28;20026;-51
2022/03/23 01:17:21;;;;;;;26.67;14.85;;;;;;;3.25;76.56;100694.28;4961914;28;20409;-53
2022/03/23 01:19:46;;;;;;;30.00;15.20;;;;;;;3.28;77.61;100698.41;4953986;28;20565;-50
2022/03/23 01:22:12;;;;;;;31.02;14.90;;;;;;;3.08;72.65;100696.00;4963864;28;20101;-52
2022/03/23 01:24:37;;;;;;;28.83;15.77;;;;;;;2.80;71.22;100701.47;4961817;28;20035;-50
2022/03/23 01:27:03;;;;;;;32.28;16.05;;;;;;;2.57;70.59;100702.94;4968170;28;20580;-51
2022/03/23 01:29:29;;;;;;;26.38;15.63;;;;;;;2.48;72.00;100695.97;4957863;28;20114;-52
2022/03/23 01:31:54;;;;;;;28.83;16.92;;;;;;;2.29;72.85;100703.06;4962649;28;20042;-49
2022/03/23 01:34:20;;;;;;;30.30;15.73;;;;;;;2.13;75.06;100697.66;4964681;28;20042;-51
2022/03/23 01:36:45;;;;;;;33.03;17.77;;;;;;;1.97;73.93;100697.47;4949332;28;20034;-52
2022/03/23 01:39:11;;;;;;;34.42;18.08;;;;;;;1.93;74.88;100696.97;4960590;28;20053;-49
2022/03/23 01:41:37;;;;;;;34.25;17.60;;;;;;;1.97;75.15;100697.47;4960557;28;20453;-49
2022/03/23 01:44:17;;;;;;;36.50;17.45;;;;;;;1.93;75.52;100691.69;4967520;28;20039;-50
2022/03/23 01:47:01;;;;;;;29.30;15.43;;;;;;;1.79;74.02;100692.19;4960791;28;20047;-52
2022/03/23 01:49:27;;;;;;;27.10;15.23;;;;;;;1.94;73.93;100688.88;4968564;28;20074;-50
2022/03/23 01:51:52;;;;;;;27.67;15.60;;;;;;;2.09;75.50;100696.28;4967550;28;20050;-51
2022/03/23 01:54:17;;;;;;;29.85;15.82;;;;;;;2.06;73.06;100691.31;4952795;28;20050;-53
2022/03/23 01:56:43;;;;;;;31.67;16.05;;;;;;;2.20;76.18;100690.78;4963815;28;20161;-52
2022/03/23 01:59:09;;;;;;;28.08;15.93;;;;;;;2.19;73.99;100691.75;4961471;28;20035;-49
2022/03/23 02:01:34;;;;;;;26.40;15.75;;;;;;;2.17;74.46;100699.00;4958848;28;20082;-52
2022/03/23 02:04:00;;;;;;;27.63;15.90;;;;;;;2.01;74.01;100699.69;4969301;28;20042;-51
2022/03/23 02:06:25;;;;;;;27.75;16.05;;;;;;;1.83;73.94;100686.47;4953111;28;20038;-52
2022/03/23 02:08:51;;;;;;;24.92;13.60;;;;;;;2.09;73.95;100696.28;4963778;28;20042;-49
2022/03/23 02:11:17;;;;;;;30.58;15.38;;;;;;;2.19;73.01;100691.75;4962686;28;20114;-49
2022/03/23 02:13:42;;;;;;;25.15;14.00;;;;;;;2.42;72.20;100691.25;4963149;28;20042;-51
2022/03/23 02:16:08;;;;;;;26.23;15.30;;;;;;;2.03;72.99;100686.31;4965149;28;20420;-51
2022/03/23 02:18:33;;;;;;;29.60;16.23;;;;;;;1.78;75.22;100688.72;4971953;28;20033;-49
2022/03/23 02:20:59;;;;;;;29.75;16.85;;;;;;;1.44;76.71;100686.69;4966721;28;20345;-52
2022/03/23 02:23:24;;;;;;;28.73;16.45;;;;;;;1.51;78.03;100681.66;4968158;28;20474;-52
2022/03/23 02:25:49;;;;;;;24.88;15.65;;;;;;;1.51;76.66;100681.66;4947355;28;20500;-50
2022/03/23 02:28:15;;;;;;;29.88;15.90;;;;;;;1.40;77.00;100685.34;4969964;28;20097;-51
2022/03/23 02:30:40;;;;;;;28.55;15.73;;;;;;;1.26;76.98;100684.00;4969573;28;20047;-51
2022/03/23 02:33:06;;;;;;;27.73;15.80;;;;;;;1.20;77.45;100683.75;4968555;28;20034;-49
2022/03/23 02:35:31;;;;;;;26.80;16.10;;;;;;;1.21;78.27;100691.53;4964855;28;20055;-49
2022/03/23 02:37:57;;;;;;;28.67;17.10;;;;;;;1.23;77.96;100683.47;4961456;28;20488;-52
2022/03/23 02:40:22;;;;;;;34.08;17.27;;;;;;;1.15;78.91;100688.63;4964492;28;20394;-53
2022/03/23 02:42:48;;;;;;;28.20;16.55;;;;;;;1.45;80.88;100685.72;4969448;28;20779;-50
2022/03/23 02:45:14;;;;;;;30.27;17.08;;;;;;;1.48;79.15;100688.06;4968094;28;20027;-50
2022/03/23 02:47:41;;;;;;;29.15;15.43;;;;;;;1.81;82.52;100690.22;4964540;28;20222;-50
2022/03/23 02:50:07;;;;;;;27.88;14.88;;;;;;;1.59;78.11;100694.13;4949726;28;20396;-51
2022/03/23 02:52:32;;;;;;;28.17;15.13;;;;;;;1.64;78.95;100689.22;4959018;28;20034;-50
2022/03/23 03:03:39;;;;;;;30.95;16.95;;;;;;;1.49;79.92;100700.28;4970125;28;20353;-49
2022/03/23 03:06:05;;;;;;;30.98;15.25;;;;;;;1.42;78.13;100703.66;4968628;28;20042;-52
2022/03/23 03:08:46;;;;;;;27.55;14.98;;;;;;;1.06;77.48;100699.09;4967131;28;20089;-51
2022/03/23 03:11:12;;;;;;;30.58;15.68;;;;;;;1.47;77.89;100701.41;4962734;28;20050;-54
2022/03/23 03:13:39;;;;;;;26.10;14.55;;;;;;;1.52;79.21;100709.72;4978375;28;21076;-50
2022/03/23 03:16:05;;;;;;;24.90;15.07;;;;;;;1.41;77.15;100707.28;4969973;28;20054;-49
2022/03/23 03:18:31;;;;;;;29.42;15.38;;;;;;;1.18;78.43;100709.50;4970847;28;20047;-52
2022/03/23 03:20:57;;;;;;;28.10;15.52;;;;;;;0.98;78.90;100703.44;4968566;28;20557;-52
2022/03/23 03:23:23;;;;;;;31.25;13.25;;;;;;;1.65;78.05;100701.47;4970260;28;20030;-51
2022/03/23 03:25:48;;;;;;;25.73;15.32;;;;;;;1.90;78.23;100713.97;4970690;28;20412;-51
2022/03/23 03:28:14;;;;;;;27.35;14.55;;;;;;;1.40;79.08;100710.91;4966310;28;20043;-50
2022/03/23 03:30:39;;;;;;;29.45;15.68;;;;;;;1.04;78.65;100703.69;4962038;28;20043;-49
2022/03/23 03:33:04;;;;;;;30.80;15.65;;;;;;;0.93;78.99;100709.16;4956356;28;20496;-50
2022/03/23 03:35:30;;;;;;;30.98;16.15;;;;;;;0.90;79.07;100703.31;4975513;28;20047;-53
2022/03/23 03:37:55;;;;;;;29.23;16.17;;;;;;;0.73;79.29;100707.56;4960138;28;20407;-52
2022/03/23 03:40:21;;;;;;;30.45;16.55;;;;;;;0.61;80.33;100710.34;4969824;28;20070;-53
2022/03/23 03:42:46;;;;;;;29.35;15.55;;;;;;;0.95;80.69;100712.50;4970785;28;20034;-50
2022/03/23 03:45:12;;;;;;;28.42;15.05;;;;;;;1.32;78.90;100711.63;4960271;28;20034;-51
2022/03/23 03:47:37;;;;;;;26.27;14.93;;;;;;;1.38;78.52;100716.34;4962791;28;20031;-53
2022/03/23 03:50:03;;;;;;;25.60;14.00;;;;;;;1.35;78.64;100723.72;4963030;28;20401;-53
2022/03/23 03:52:28;;;;;;;28.70;14.30;;;;;;;1.12;78.89;100718.81;4960856;28;20034;-52
2022/03/23 03:54:54;;;;;;;23.98;13.63;;;;;;;1.07;80.50;100726.31;4963276;28;20034;-49
2022/03/23 03:57:19;;;;;;;27.98;15.32;;;;;;;0.82;79.46;100717.22;4966722;28;20049;-50
2022/03/23 03:59:44;;;;;;;25.65;13.98;;;;;;;1.02;82.23;100723.28;4970447;28;20038;-50
2022/03/23 04:02:10;;;;;;;25.70;15.02;;;;;;;0.89;80.99;100722.78;4960550;28;20046;-52
2022/03/23 04:04:35;;;;;;;26.90;14.45;;;;;;;0.87;80.77;100722.91;4965324;28;20054;-51
2022/03/23 04:07:02;;;;;;;26.38;14.63;;;;;;;0.99;81.08;100726.22;4980797;28;20484;-49
2022/03/23 04:09:27;;;;;;;25.40;14.75;;;;;;;0.88;80.49;100719.31;4968436;28;20023;-53
2022/03/23 04:11:52;;;;;;;26.30;13.60;;;;;;;0.89;82.65;100722.78;4967966;28;20047;-50
2022/03/23 04:14:18;;;;;;;24.88;14.15;;;;;;;0.63;80.72;100724.22;4969352;28;20034;-52
2022/03/23 04:16:43;;;;;;;25.90;15.02;;;;;;;0.90;81.95;100725.28;4966830;28;20031;-52
2022/03/23 04:19:09;;;;;;;27.05;14.80;;;;;;;0.67;79.74;100723.94;4964987;28;20535;-52
2022/03/23 04:21:34;;;;;;;26.75;13.95;;;;;;;0.82;82.24;100728.66;4960541;28;20504;-52
2022/03/23 04:24:00;;;;;;;25.70;14.77;;;;;;;0.76;80.65;100728.38;4966862;28;20043;-50
2022/03/23 04:26:25;;;;;;;26.85;14.50;;;;;;;0.85;80.17;100727.53;4961121;28;20552;-52
2022/03/23 04:28:54;;;;;;;25.27;14.77;;;;;;;0.88;80.18;100731.69;4956376;28;20837;-53
2022/03/23 04:31:20;;;;;;;30.95;15.88;;;;;;;1.06;84.27;100735.25;4952620;28;20050;-53
2022/03/23 04:33:46;;;;;;;27.13;15.13;;;;;;;0.90;83.23;100733.22;4962417;28;20035;-50
2022/03/23 04:36:11;;;;;;;23.92;13.73;;;;;;;1.02;85.19;100737.34;4969085;28;20077;-49
2022/03/23 04:38:36;;;;;;;24.02;13.88;;;;;;;0.84;81.03;100734.59;4964770;28;20478;-49
2022/03/23 04:41:03;;;;;;;26.90;14.52;;;;;;;0.81;81.91;100729.59;4968844;28;20050;-50
2022/03/23 04:43:29;;;;;;;27.05;13.90;;;;;;;0.91;83.43;100734.03;4963951;28;20481;-53
2022/03/23 04:45:54;;;;;;;26.60;14.85;;;;;;;0.97;82.70;100747.47;4964040;28;20045;-51
2022/03/23 04:48:20;;;;;;;21.40;13.52;;;;;;;0.82;83.06;100751.53;4961173;28;20058;-51
2022/03/23 04:50:47;;;;;;;26.25;13.77;;;;;;;0.63;81.60;100747.97;4962635;28;20054;-52
2022/03/23 04:53:12;;;;;;;26.05;12.93;;;;;;;0.58;82.63;100744.94;4968167;28;20053;-52
2022/03/23 04:55:38;;;;;;;27.38;14.95;;;;;;;0.50;82.17;100750.06;4967995;28;20489;-50
2022/03/23 04:58:04;;;;;;;31.63;14.50;;;;;;;0.27;82.32;100746.03;4981934;28;20108;-51
2022/03/23 05:00:29;;;;;;;27.27;13.80;;;;;;;0.48;81.57;100744.09;4968200;28;20497;-51
2022/03/23 05:02:55;;;;;;;25.40;13.35;;;;;;;0.44;81.20;100745.34;4968179;28;20035;-52
2022/03/23 05:05:20;;;;;;;26.80;14.27;;;;;;;0.56;81.88;100752.16;4965607;28;20046;-53
2022/03/23 05:07:46;;;;;;;23.60;13.13;;;;;;;0.54;81.48;100742.72;4966378;28;20032;-51
2022/03/23 05:10:12;;;;;;;26.73;14.00;;;;;;;0.46;81.86;100753.97;4961858;28;20066;-51
2022/03/23 05:12:38;;;;;;;27.60;14.10;;;;;;;0.21;82.66;100745.63;4959013;28;20022;-50
2022/03/23 05:15:05;;;;;;;23.65;13.68;;;;;;;0.36;82.97;100755.78;4960294;28;20047;-50
2022/03/23 05:17:31;;;;;;;28.67;14.30;;;;;;;0.29;82.39;100752.00;4967199;28;20490;-52
2022/03/23 05:19:57;;;;;;;27.15;14.05;;;;;;;0.26;83.61;100754.94;4962026;28;20051;-50
2022/03/23 05:22:22;;;;;;;33.72;13.57;;;;;;;0.27;83.30;100756.59;4957946;28;20625;-50
2022/03/23 05:24:47;;;;;;;22.08;13.50;;;;;;;0.26;83.73;100753.13;4961539;28;20748;-52
2022/03/23 05:27:13;;;;;;;26.90;15.05;;;;;;;0.72;85.83;100753.38;4959665;28;20405;-50
2022/03/23 05:29:38;;;;;;;27.17;14.40;;;;;;;0.54;82.46;100755.91;4968076;28;20041;-51
2022/03/23 05:32:04;;;;;;;27.27;13.48;;;;;;;0.25;81.40;100755.88;4965457;28;20121;-52
2022/03/23 05:34:29;;;;;;;22.33;13.25;;;;;;;0.09;82.72;100752.00;4954010;28;20062;-51
2022/03/23 05:36:55;;;;;;;27.00;13.30;;;;;;;-0.06;82.58;100756.84;4960994;28;20085;-49
2022/03/23 05:39:20;;;;;;;27.45;14.05;;;;;;;0.17;82.91;100754.78;4964591;28;20498;-52
2022/03/23 05:41:46;;;;;;;24.60;13.85;;;;;;;0.12;82.36;100756.16;4955797;28;20042;-51
2022/03/23 05:44:11;;;;;;;26.73;13.75;;;;;;;0.16;83.13;100758.41;4960649;28;20031;-49
2022/03/23 05:46:37;;;;;;;29.80;16.48;;;;;;;0.41;83.83;100756.19;4959850;28;20269;-53
2022/03/23 05:49:03;;;;;;;30.27;16.35;;;;;;;0.83;86.24;100761.97;4958143;28;20701;-52
2022/03/23 05:51:28;;;;;;;26.45;15.52;;;;;;;0.96;84.32;100759.03;4957846;28;20378;-50
2022/03/23 05:53:54;;;;;;;27.27;15.32;;;;;;;0.78;80.63;100763.38;4970121;28;20053;-50
2022/03/23 05:56:19;;;;;;;26.27;14.18;;;;;;;0.82;80.43;100764.75;4949532;28;20133;-53
2022/03/23 05:58:45;;;;;;;23.98;14.52;;;;;;;0.89;80.01;100771.13;4967337;28;20035;-51
2022/03/23 06:01:10;;;;;;;24.25;14.20;;;;;;;1.32;81.00;100764.47;4966821;28;20043;-51
2022/03/23 06:03:35;;;;;;;23.75;12.98;;;;;;;2.28;78.47;100778.16;4963765;28;20031;-53
2022/03/23 06:06:01;;;;;;;27.20;13.68;;;;;;;2.97;72.58;100775.72;4960165;28;20465;-51
2022/03/23 06:08:27;;;;;;;25.27;12.98;;;;;;;3.95;68.36;100776.22;4966484;28;20450;-50
2022/03/23 06:10:52;;;;;;;21.83;12.93;;;;;;;4.77;65.61;100776.34;4967750;28;20059;-52
2022/03/23 06:13:18;;;;;;;24.98;13.23;;;;;;;5.36;64.41;100771.56;4962741;28;20508;-54
2022/03/23 06:15:43;;;;;;;24.90;14.23;;;;;;;6.80;58.30;100777.44;4929454;28;20076;-50
2022/03/23 06:18:09;;;;;;;20.70;12.70;;;;;;;8.00;54.92;100780.78;4962031;28;20031;-51
2022/03/23 06:20:34;;;;;;;26.70;14.43;;;;;;;7.88;53.02;100782.25;4958438;28;20074;-52
2022/03/23 06:23:00;;;;;;;28.13;14.38;;;;;;;8.63;51.43;100782.88;4967298;28;20035;-49
2022/03/23 06:25:25;;;;;;;22.90;14.73;;;;;;;10.38;46.91;100792.56;4960612;28;20229;-53
2022/03/23 06:27:51;;;;;;;28.10;14.90;;;;;;;9.40;47.91;100784.72;4964837;28;20034;-50
2022/03/23 06:30:16;;;;;;;26.75;16.15;;;;;;;10.13;46.25;100800.28;4962853;28;20027;-50
2022/03/23 06:32:41;;;;;;;29.42;16.85;;;;;;;10.50;45.95;100790.94;4964823;28;20038;-50
2022/03/23 06:35:08;;;;;;;29.35;16.95;;;;;;;9.79;46.18;100798.53;4961081;28;20071;-50
2022/03/23 06:37:34;;;;;;;28.40;17.63;;;;;;;10.20;45.71;100803.00;4964560;28;20408;-52
2022/03/23 06:39:59;;;;;;;29.52;18.73;;;;;;;11.17;43.07;100807.88;4963698;28;20035;-50
2022/03/23 06:42:25;;;;;;;31.77;17.52;;;;;;;11.57;43.11;100801.63;4978998;28;20046;-51
2022/03/23 06:44:51;;;;;;;28.25;18.63;;;;;;;11.35;43.20;100804.56;4971600;28;20476;-52
2022/03/23 06:47:16;;;;;;;31.90;19.42;;;;;;;11.35;42.91;100809.09;4970254;28;20049;-50
2022/03/23 06:49:41;;;;;;;36.20;20.73;;;;;;;11.83;41.80;100806.94;4967926;28;20089;-51
2022/03/23 06:52:10;;;;;;;34.47;20.92;;;;;;;11.69;42.39;100813.38;4970538;28;20051;-49
2022/03/23 06:54:35;;;;;;;39.15;21.38;;;;;;;10.28;45.46;100809.06;4960378;28;20035;-49
2022/03/23 06:57:01;;;;;;;34.63;20.75;;;;;;;10.78;45.38;100814.06;4960640;28;20524;-50
2022/03/23 06:59:26;;;;;;;31.70;19.67;;;;;;;10.22;45.58;100814.34;4962933;28;20054;-52
2022/03/23 07:01:51;;;;;;;29.77;19.10;;;;;;;10.72;46.24;100809.53;4964304;28;20039;-51
2022/03/23 07:04:17;;;;;;;36.28;20.77;;;;;;;10.85;45.43;100814.09;4966418;28;20045;-51
2022/03/23 07:06:42;;;;;;;29.88;18.73;;;;;;;11.01;44.82;100814.50;4968806;28;20071;-53
2022/03/23 07:11:52;;;;;;;32.47;18.80;;;;;;;10.19;46.66;100822.81;4959326;28;20058;-53
2022/03/23 07:14:18;;;;;;;28.83;19.25;;;;;;;10.72;46.29;100826.44;4965212;28;20027;-50
2022/03/23 07:16:43;;;;;;;33.45;22.52;;;;;;;10.17;46.92;100822.16;4965212;28;20377;-52
2022/03/23 07:19:09;;;;;;;43.08;28.77;;;;;;;9.86;47.30;100820.78;4963070;28;20063;-52
2022/03/23 07:21:35;;;;;;;42.60;30.75;;;;;;;10.23;46.91;100824.84;4967030;28;20161;-52
2022/03/23 07:24:00;;;;;;;41.35;24.35;;;;;;;9.38;49.44;100824.22;4970797;28;20035;-50
2022/03/23 07:26:26;;;;;;;31.05;18.77;;;;;;;9.59;48.43;100825.19;4969369;28;20043;-51
2022/03/23 07:28:51;;;;;;;30.45;19.40;;;;;;;9.95;47.66;100830.31;4967019;28;20434;-52
2022/03/23 07:31:17;;;;;;;31.92;19.08;;;;;;;9.41;49.20;100829.19;4967214;28;20434;-53
2022/03/23 07:33:42;;;;;;;33.20;19.85;;;;;;;9.79;48.30;100822.63;4965555;28;20377;-51
2022/03/23 07:36:08;;;;;;;33.08;20.48;;;;;;;10.30;47.48;100827.59;4963915;28;20089;-50
2022/03/23 07:38:33;;;;;;;35.17;21.52;;;;;;;10.05;48.04;100819.22;4960544;28;20041;-49
2022/03/23 07:40:59;;;;;;;34.65;21.65;;;;;;;10.30;47.71;100823.06;4962206;28;20058;-52
2022/03/23 07:43:24;;;;;;;48.10;22.73;;;;;;;10.94;45.86;100828.97;4963051;28;20027;-50
2022/03/23 07:45:50;;;;;;;37.47;22.15;;;;;;;10.94;46.23;100831.63;4963842;28;20387;-50
2022/03/23 07:48:20;;;;;;;34.05;22.92;;;;;;;10.79;46.86;100831.84;4966712;28;20026;-50
2022/03/23 07:50:45;;;;;;;;;;;;;;;10.79;46.55;100831.84;4964995;28;20622;-52
2022/03/23 07:53:11;;;;;;;33.47;20.33;;;;;;;10.68;47.18;100821.69;4962087;28;19921;-52
2022/03/23 07:55:36;;;;;;;28.17;17.90;;;;;;;11.04;47.10;100836.59;4967662;28;20073;-52
2022/03/23 07:58:02;;;;;;;39.47;20.70;;;;;;;10.66;47.28;100837.16;4963495;28;20418;-50
2022/03/23 08:00:28;;;;;;;33.65;19.70;;;;;;;11.08;47.74;100843.19;4968931;28;20514;-51
2022/03/23 08:02:53;;;;;;;33.53;19.52;;;;;;;10.81;48.51;100835.13;4976521;28;20030;-51
2022/03/23 08:05:19;;;;;;;39.42;20.23;;;;;;;11.27;47.06;100834.31;4966863;28;20050;-51
2022/03/23 08:07:45;;;;;;;37.25;21.45;;;;;;;11.13;47.31;100838.88;4952697;28;20110;-53
2022/03/23 08:10:10;;;;;;;33.92;20.13;;;;;;;10.70;48.33;100835.72;4962459;28;20317;-53
2022/03/23 08:12:36;;;;;;;36.90;20.08;;;;;;;10.40;49.56;100832.56;4967809;28;20034;-52
2022/03/23 08:15:01;;;;;;;43.00;19.60;;;;;;;11.67;47.58;100839.63;4967445;28;20038;-53
2022/03/23 08:17:27;;;;;;;38.75;18.98;;;;;;;11.80;46.96;100836.88;4962292;28;20026;-52
2022/03/23 08:22:36;;;;;;;29.83;18.85;;;;;;;12.16;46.66;100832.88;4964578;28;20097;-53
2022/03/23 08:25:02;;;;;;;31.10;19.52;;;;;;;11.76;46.82;100830.31;4976097;28;20432;-52
2022/03/23 08:27:28;;;;;;;36.80;20.67;;;;;;;11.16;48.33;100833.09;4967682;28;20445;-51
2022/03/23 08:29:53;;;;;;;35.42;20.38;;;;;;;11.19;49.13;100827.31;4961122;28;20458;-52
2022/03/23 08:32:18;;;;;;;33.45;18.80;;;;;;;12.13;47.65;100822.56;4959238;28;20043;-50
2022/03/23 08:34:44;;;;;;;35.40;19.42;;;;;;;12.09;46.84;100826.69;4958717;28;20473;-51
2022/03/23 08:37:09;;;;;;;38.78;20.67;;;;;;;11.57;48.34;100823.13;4963835;28;20155;-50
2022/03/23 08:39:35;;;;;;;36.15;20.52;;;;;;;11.87;48.00;100823.47;4967916;28;20521;-50
2022/03/23 08:42:00;;;;;;;31.23;19.38;;;;;;;12.16;46.97;100824.00;4961901;28;20049;-50
2022/03/23 08:44:25;;;;;;;37.25;21.10;;;;;;;12.07;46.88;100818.03;4962777;28;20027;-50
2022/03/23 08:46:51;;;;;;;45.20;21.02;;;;;;;12.53;46.16;100827.72;4961981;28;20400;-53
2022/03/23 08:49:16;;;;;;;36.85;21.42;;;;;;;11.90;47.45;100819.53;4964404;28;20095;-52
2022/03/23 08:51:42;;;;;;;39.95;20.45;;;;;;;12.60;45.83;100823.09;4963702;28;20042;-51
2022/03/23 08:54:08;;;;;;;44.67;21.75;;;;;;;12.63;46.34;100820.00;4961944;28;20031;-52
2022/03/23 08:56:33;;;;;;;36.72;21.92;;;;;;;13.32;45.08;100825.47;4968147;28;20050;-52
2022/03/23 08:58:59;;;;;;;41.92;20.80;;;;;;;13.71;44.61;100812.66;4967018;28;20031;-52
2022/03/23 09:01:24;;;;;;;37.60;21.30;;;;;;;14.45;43.14;100811.50;4967391;28;20413;-52
2022/03/23 09:03:50;;;;;;;49.42;22.85;;;;;;;14.22;42.28;100819.50;4967525;28;20042;-52
2022/03/23 09:06:15;;;;;;;41.20;22.45;;;;;;;13.27;45.04;100814.56;4959192;28;20050;-54
2022/03/23 09:08:41;;;;;;;45.78;22.38;;;;;;;13.43;44.40;100819.38;4955817;28;20035;-51
2022/03/23 09:11:06;;;;;;;42.28;21.67;;;;;;;14.15;44.01;100811.50;4968080;28;20050;-49
2022/03/23 09:13:32;;;;;;;42.60;22.80;;;;;;;14.15;44.20;100813.38;4968536;28;20050;-51
2022/03/23 09:15:57;;;;;;;45.63;23.25;;;;;;;15.19;41.54;100818.50;4964230;28;20067;-51
2022/03/23 09:18:26;;;;;;;39.65;23.05;;;;;;;15.05;41.79;100818.72;4967557;28;20069;-53
2022/03/23 09:20:52;;;;;;;48.25;22.75;;;;;;;15.40;41.39;100815.22;4961510;28;20058;-51
2022/03/23 09:23:17;;;;;;;43.08;22.88;;;;;;;16.18;39.94;100819.31;4964030;28;20058;-52
2022/03/23 09:25:43;;;;;;;55.28;23.98;;;;;;;15.76;41.12;100820.59;4955351;28;20035;-52
2022/03/23 09:28:11;;;;;;;41.03;23.50;;;;;;;15.79;41.49;100812.00;4958857;28;20041;-50
2022/03/23 09:30:37;;;;;;;52.42;23.23;;;;;;;16.47;39.68;100813.88;4967447;28;20146;-52
2022/03/23 09:33:02;;;;;;;50.17;23.40;;;;;;;15.98;40.91;100815.38;4964584;28;20537;-53
2022/03/23 09:35:28;;;;;;;52.15;24.55;;;;;;;15.74;41.59;100815.44;4968059;28;20050;-52
2022/03/23 09:37:56;;;;;;;53.63;25.88;;;;;;;15.19;43.14;100813.91;4956558;28;20030;-51
2022/03/23 09:40:25;;;;;;;64.88;25.30;;;;;;;16.41;41.11;100819.47;4964453;28;20062;-52
2022/03/23 09:43:04;;;;;;;55.10;25.67;;;;;;;16.55;40.84;100809.97;4966563;28;20035;-52
2022/03/23 09:45:48;;;;;;;54.50;25.15;;;;;;;16.04;41.50;100807.13;4961124;28;20885;-51
2022/03/23 09:48:16;;;;;;;52.78;25.77;;;;;;;16.38;40.60;100812.66;4961601;28;20038;-50
2022/03/23 09:50:46;;;;;;;53.42;25.50;;;;;;;17.52;38.74;100808.00;4951505;28;20039;-53
2022/03/23 09:53:11;;;;;;;56.63;25.85;;;;;;;17.20;39.06;100809.47;4963445;28;20388;-52
2022/03/23 09:55:37;;;;;;;58.88;27.33;;;;;;;17.42;38.25;100804.09;4954722;28;20496;-53
2022/03/23 09:58:03;;;;;;;62.47;25.63;;;;;;;17.15;38.92;100803.97;4967409;28;20058;-53
2022/03/23 10:00:40;;;;;;;55.25;27.00;;;;;;;17.39;37.59;100792.91;4961393;28;20050;-53
2022/03/23 10:03:11;;;;;;;46.17;25.60;;;;;;;17.00;34.43;100799.13;4966416;28;20453;-51
2022/03/23 10:06:00;;;;;;;41.80;24.20;;;;;;;15.42;36.90;100806.84;4968202;28;20047;-52
2022/03/23 10:08:57;;;;;;;41.22;25.85;;;;;;;16.48;35.55;100802.00;4968453;28;20038;-50
2022/03/23 10:12:00;;;;;;;45.47;26.10;;;;;;;17.45;34.75;100798.16;4961596;28;20516;-52
2022/03/23 10:15:02;;;;;;;45.70;25.60;;;;;;;18.22;32.61;100791.00;4965376;28;20034;-51
2022/03/23 10:18:05;;;;;;;48.67;24.77;;;;;;;18.25;33.66;100795.91;4969224;28;20066;-53
2022/03/23 10:20:31;;;;;;;38.53;25.05;;;;;;;18.95;32.60;100798.78;4963678;28;20046;-53
2022/03/23 10:22:56;;;;;;;45.03;25.02;;;;;;;18.42;32.25;100790.41;4971713;28;20097;-51
2022/03/23 10:25:26;;;;;;;40.63;23.52;;;;;;;18.25;32.59;100797.81;4968354;28;20051;-52
2022/03/23 10:27:57;;;;;;;47.00;24.70;;;;;;;18.91;32.62;100798.44;4971334;28;20097;-50
2022/03/23 10:30:35;;;;;;;45.60;26.13;;;;;;;18.07;32.41;100790.81;4962836;28;20043;-50
2022/03/23 10:33:01;;;;;;;48.45;25.98;;;;;;;18.41;31.60;100794.19;4961937;28;20035;-53
2022/03/23 10:35:37;;;;;;;43.55;25.98;;;;;;;18.91;31.25;100792.22;4960161;28;20054;-51
2022/03/23 10:38:15;;;;;;;43.03;25.83;;;;;;;17.59;32.43;100786.97;4958058;28;20038;-53
2022/03/23 10:40:42;;;;;;;44.42;25.10;;;;;;;17.42;30.90;100787.84;4966551;28;20564;-53
2022/03/23 10:43:09;;;;;;;39.15;25.25;;;;;;;18.43;30.89;100780.34;4968257;28;20443;-51
2022/03/23 10:45:34;;;;;;;47.58;23.95;;;;;;;18.72;30.76;100779.00;4964607;28;20043;-52
2022/03/23 10:48:14;;;;;;;43.28;24.27;;;;;;;18.69;29.33;100778.69;4964950;28;20971;-50
2022/03/23 10:50:53;;;;;;;41.00;24.65;;;;;;;19.35;29.45;100775.66;4960703;28;20406;-53
2022/03/23 10:53:39;;;;;;;44.53;25.15;;;;;;;18.96;29.20;100771.31;4965607;28;20540;-53
2022/03/23 10:56:05;;;;;;;40.13;23.30;;;;;;;19.54;28.40;100773.31;4969657;28;20039;-53
2022/03/23 10:58:32;;;;;;;41.92;23.77;;;;;;;20.18;27.88;100772.22;4950356;28;20142;-52
2022/03/23 11:01:15;;;;;;;42.13;24.27;;;;;;;18.84;29.75;100765.25;4967458;28;20125;-50
2022/03/23 11:03:42;;;;;;;45.85;24.75;;;;;;;19.69;27.92;100769.88;4959005;28;20382;-53
2022/03/23 11:06:09;;;;;;;41.10;22.50;;;;;;;18.49;28.06;100760.31;4964651;28;20039;-52
2022/03/23 11:08:35;;;;;;;41.72;24.38;;;;;;;18.32;28.51;100753.13;4970302;28;20389;-53
2022/03/23 11:16:54;;;;;;;41.50;22.13;;;;;;;19.66;27.50;100752.16;4962009;28;20071;-51
2022/03/23 11:19:26;;;;;;;38.00;20.60;;;;;;;19.52;27.29;100749.13;4965021;28;20089;-51
2022/03/23 11:22:11;;;;;;;42.00;22.25;;;;;;;18.93;28.54;100746.59;4970039;28;20081;-52
2022/03/23 11:24:41;;;;;;;32.60;17.88;;;;;;;17.43;27.86;100748.81;4971282;28;20046;-51
2022/03/23 11:27:11;;;;;;;39.20;20.52;;;;;;;18.27;27.71;100744.94;4948827;28;20046;-53
2022/03/23 11:29:37;;;;;;;36.47;20.02;;;;;;;18.38;28.51;100739.59;4962469;28;20059;-52
2022/03/23 11:32:08;;;;;;;39.60;19.83;;;;;;;17.88;27.75;100733.38;4967720;28;20493;-50
2022/03/23 11:34:34;;;;;;;39.47;19.92;;;;;;;17.12;30.18;100733.19;4975529;28;20026;-53